sensor_id;sensor_type;location;lat;lon;timestamp;temperature;humidity
51914;DHT22;37940;53.002;6.930;2023-02-21T00:01:49;9.40;99.90
51914;DHT22;37940;53.002;6.930;2023-02-21T00:04:34;9.40;99.90
51914;DHT22;37940;53.002;6.930;2023-02-21T00:07:18;9.40;99.90
51914;DHT22;37940;53.002;6.930;2023-02-21T00:10:04;9.30;99.90
51914;DHT22;37940;53.002;6.930;2023-02-21T00:12:48;9.40;99.90
51914;DHT22;37940;53.002;6.930;2023-02-21T00:15:33;9.30;99.90
51914;DHT22;37940;53.002;6.930;2023-02-21T00:18:17;9.30;99.90
51914;DHT22;37940;53.002;6.930;2023-02-21T00:21:02;9.30;99.90
51914;DHT22;37940;53.002;6.930;2023-02-21T00:23:46;9.30;99.90
51914;DHT22;37940;53.002;6.930;2023-02-21T00:26:30;9.30;99.90
51914;DHT22;37940;53.002;6.930;2023-02-21T00:29:15;9.30;99.90
51914;DHT22;37940;53.002;6.930;2023-02-21T00:31:59;9.30;99.90
51914;DHT22;37940;53.002;6.930;2023-02-21T00:34:43;9.30;99.90
51914;DHT22;37940;53.002;6.930;2023-02-21T00:37:28;9.30;99.90
51914;DHT22;37940;53.002;6.930;2023-02-21T00:40:13;9.30;99.90
51914;DHT22;37940;53.002;6.930;2023-02-21T00:42:58;9.30;99.90
51914;DHT22;37940;53.002;6.930;2023-02-21T00:45:42;9.30;99.90
51914;DHT22;37940;53.002;6.930;2023-02-21T00:48:27;9.30;99.90
51914;DHT22;37940;53.002;6.930;2023-02-21T00:51:11;9.30;99.90
51914;DHT22;37940;53.002;6.930;2023-02-21T00:53:56;9.30;99.90
51914;DHT22;37940;53.002;6.930;2023-02-21T00:56:40;9.30;99.90
51914;DHT22;37940;53.002;6.930;2023-02-21T00:59:24;9.30;99.90
51914;DHT22;37940;53.002;6.930;2023-02-21T01:02:09;9.30;99.90
51914;DHT22;37940;53.002;6.930;2023-02-21T01:04:53;9.30;99.90
51914;DHT22;37940;53.002;6.930;2023-02-21T01:07:38;9.30;99.90
51914;DHT22;37940;53.002;6.930;2023-02-21T01:10:22;9.40;99.90
51914;DHT22;37940;53.002;6.930;2023-02-21T01:13:06;9.40;99.90
51914;DHT22;37940;53.002;6.930;2023-02-21T01:15:51;9.30;99.90
51914;DHT22;37940;53.002;6.930;2023-02-21T01:18:35;9.30;99.90
51914;DHT22;37940;53.002;6.930;2023-02-21T01:21:21;9.30;99.90
51914;DHT22;37940;53.002;6.930;2023-02-21T01:24:08;9.30;99.90
51914;DHT22;37940;53.002;6.930;2023-02-21T01:26:53;9.30;99.90
51914;DHT22;37940;53.002;6.930;2023-02-21T01:29:37;9.30;99.90
51914;DHT22;37940;53.002;6.930;2023-02-21T01:32:21;9.30;99.90
51914;DHT22;37940;53.002;6.930;2023-02-21T01:35:05;9.30;99.90
51914;DHT22;37940;53.002;6.930;2023-02-21T01:37:50;9.30;99.90
51914;DHT22;37940;53.002;6.930;2023-02-21T01:40:37;9.30;99.90
51914;DHT22;37940;53.002;6.930;2023-02-21T01:43:24;9.30;99.90
51914;DHT22;37940;53.002;6.930;2023-02-21T01:46:13;9.30;99.90
51914;DHT22;37940;53.002;6.930;2023-02-21T01:49:02;9.30;99.90
51914;DHT22;37940;53.002;6.930;2023-02-21T01:51:47;9.30;99.90
51914;DHT22;37940;53.002;6.930;2023-02-21T01:54:37;9.30;99.90
51914;DHT22;37940;53.002;6.930;2023-02-21T01:57:23;9.30;99.90
51914;DHT22;37940;53.002;6.930;2023-02-21T02:00:10;9.30;99.90
51914;DHT22;37940;53.002;6.930;2023-02-21T02:06:00;9.40;99.90
51914;DHT22;37940;53.002;6.930;2023-02-21T02:08:45;9.30;99.90
51914;DHT22;37940;53.002;6.930;2023-02-21T02:14:50;9.30;99.90
51914;DHT22;37940;53.002;6.930;2023-02-21T02:17:38;9.40;99.90
51914;DHT22;37940;53.002;6.930;2023-02-21T02:25:55;9.30;99.90
51914;DHT22;37940;53.002;6.930;2023-02-21T02:36:54;9.30;99.90
51914;DHT22;37940;53.002;6.930;2023-02-21T02:39:41;9.20;99.90
51914;DHT22;37940;53.002;6.930;2023-02-21T02:44:49;9.20;99.90
51914;DHT22;37940;53.002;6.930;2023-02-21T02:47:32;9.20;99.90
51914;DHT22;37940;53.002;6.930;2023-02-21T02:50:01;9.20;99.90
51914;DHT22;37940;53.002;6.930;2023-02-21T02:52:28;9.20;99.90
51914;DHT22;37940;53.002;6.930;2023-02-21T02:55:03;9.20;99.90
51914;DHT22;37940;53.002;6.930;2023-02-21T02:57:31;9.20;99.90
51914;DHT22;37940;53.002;6.930;2023-02-21T03:00:06;9.20;99.90
51914;DHT22;37940;53.002;6.930;2023-02-21T03:08:02;9.20;99.90
51914;DHT22;37940;53.002;6.930;2023-02-21T03:10:51;9.20;99.90
51914;DHT22;37940;53.002;6.930;2023-02-21T03:13:33;9.20;99.90
51914;DHT22;37940;53.002;6.930;2023-02-21T03:18:55;9.20;99.90
51914;DHT22;37940;53.002;6.930;2023-02-21T03:21:27;9.20;99.90
51914;DHT22;37940;53.002;6.930;2023-02-21T03:23:56;9.20;99.90
51914;DHT22;37940;53.002;6.930;2023-02-21T03:26:23;9.20;99.90
51914;DHT22;37940;53.002;6.930;2023-02-21T03:28:50;9.20;99.90
51914;DHT22;37940;53.002;6.930;2023-02-21T03:31:19;9.20;99.90
51914;DHT22;37940;53.002;6.930;2023-02-21T03:33:46;9.20;99.90
51914;DHT22;37940;53.002;6.930;2023-02-21T03:36:13;9.20;99.90
51914;DHT22;37940;53.002;6.930;2023-02-21T03:38:40;9.20;99.90
51914;DHT22;37940;53.002;6.930;2023-02-21T03:41:07;9.20;99.90
51914;DHT22;37940;53.002;6.930;2023-02-21T03:43:35;9.20;99.90
51914;DHT22;37940;53.002;6.930;2023-02-21T03:46:00;9.20;99.90
51914;DHT22;37940;53.002;6.930;2023-02-21T03:48:26;9.20;99.90
51914;DHT22;37940;53.002;6.930;2023-02-21T03:50:52;9.20;99.90
51914;DHT22;37940;53.002;6.930;2023-02-21T03:53:18;9.20;99.90
51914;DHT22;37940;53.002;6.930;2023-02-21T03:55:44;9.20;99.90
51914;DHT22;37940;53.002;6.930;2023-02-21T03:58:10;9.20;99.90
51914;DHT22;37940;53.002;6.930;2023-02-21T04:00:35;9.20;99.90
51914;DHT22;37940;53.002;6.930;2023-02-21T04:03:01;9.20;99.90
51914;DHT22;37940;53.002;6.930;2023-02-21T04:05:27;9.20;99.90
51914;DHT22;37940;53.002;6.930;2023-02-21T04:07:53;9.20;99.90
51914;DHT22;37940;53.002;6.930;2023-02-21T04:10:19;9.20;99.90
51914;DHT22;37940;53.002;6.930;2023-02-21T04:12:45;9.20;99.90
51914;DHT22;37940;53.002;6.930;2023-02-21T04:15:11;9.20;99.90
51914;DHT22;37940;53.002;6.930;2023-02-21T04:17:37;9.10;99.90
51914;DHT22;37940;53.002;6.930;2023-02-21T04:20:03;9.20;99.90
51914;DHT22;37940;53.002;6.930;2023-02-21T04:22:29;9.10;99.90
51914;DHT22;37940;53.002;6.930;2023-02-21T04:24:55;9.20;99.90
51914;DHT22;37940;53.002;6.930;2023-02-21T04:27:21;9.20;99.90
51914;DHT22;37940;53.002;6.930;2023-02-21T04:29:47;9.10;99.90
51914;DHT22;37940;53.002;6.930;2023-02-21T04:32:13;9.20;99.90
51914;DHT22;37940;53.002;6.930;2023-02-21T04:34:39;9.10;99.90
51914;DHT22;37940;53.002;6.930;2023-02-21T04:37:05;9.10;99.90
51914;DHT22;37940;53.002;6.930;2023-02-21T04:39:31;9.10;99.90
51914;DHT22;37940;53.002;6.930;2023-02-21T04:41:57;9.10;99.90
51914;DHT22;37940;53.002;6.930;2023-02-21T04:44:22;9.20;99.90
51914;DHT22;37940;53.002;6.930;2023-02-21T04:46:48;9.10;99.90
51914;DHT22;37940;53.002;6.930;2023-02-21T04:49:14;9.10;99.90
51914;DHT22;37940;53.002;6.930;2023-02-21T04:51:40;9.10;99.90
51914;DHT22;37940;53.002;6.930;2023-02-21T04:54:06;9.10;99.90
51914;DHT22;37940;53.002;6.930;2023-02-21T04:56:34;9.10;99.90
51914;DHT22;37940;53.002;6.930;2023-02-21T04:59:00;9.10;99.90
51914;DHT22;37940;53.002;6.930;2023-02-21T05:01:27;9.10;99.90
51914;DHT22;37940;53.002;6.930;2023-02-21T05:03:55;9.10;99.90
51914;DHT22;37940;53.002;6.930;2023-02-21T05:06:23;9.10;99.90
51914;DHT22;37940;53.002;6.930;2023-02-21T05:08:49;9.10;99.90
51914;DHT22;37940;53.002;6.930;2023-02-21T05:11:17;9.10;99.90
51914;DHT22;37940;53.002;6.930;2023-02-21T05:13:44;9.10;99.90
51914;DHT22;37940;53.002;6.930;2023-02-21T05:16:10;9.10;99.90
51914;DHT22;37940;53.002;6.930;2023-02-21T05:18:36;9.10;99.90
51914;DHT22;37940;53.002;6.930;2023-02-21T05:21:06;9.10;99.90
51914;DHT22;37940;53.002;6.930;2023-02-21T05:23:33;9.10;99.90
51914;DHT22;37940;53.002;6.930;2023-02-21T05:26:01;9.10;99.90
51914;DHT22;37940;53.002;6.930;2023-02-21T05:28:27;9.10;99.90
51914;DHT22;37940;53.002;6.930;2023-02-21T05:30:53;9.10;99.90
51914;DHT22;37940;53.002;6.930;2023-02-21T05:33:19;9.10;99.90
51914;DHT22;37940;53.002;6.930;2023-02-21T05:35:45;9.10;99.90
51914;DHT22;37940;53.002;6.930;2023-02-21T05:38:13;9.10;99.90
51914;DHT22;37940;53.002;6.930;2023-02-21T05:40:39;9.10;99.90
51914;DHT22;37940;53.002;6.930;2023-02-21T05:43:05;9.10;99.90
51914;DHT22;37940;53.002;6.930;2023-02-21T05:45:31;9.10;99.90
51914;DHT22;37940;53.002;6.930;2023-02-21T05:47:56;9.10;99.90
51914;DHT22;37940;53.002;6.930;2023-02-21T05:50:28;9.10;99.90
51914;DHT22;37940;53.002;6.930;2023-02-21T05:52:58;9.10;99.90
51914;DHT22;37940;53.002;6.930;2023-02-21T05:55:25;9.10;99.90
51914;DHT22;37940;53.002;6.930;2023-02-21T05:57:51;9.10;99.90
51914;DHT22;37940;53.002;6.930;2023-02-21T06:00:28;9.10;99.90
51914;DHT22;37940;53.002;6.930;2023-02-21T06:02:55;9.10;99.90
51914;DHT22;37940;53.002;6.930;2023-02-21T06:05:22;9.10;99.90
51914;DHT22;37940;53.002;6.930;2023-02-21T06:07:48;9.10;99.90
51914;DHT22;37940;53.002;6.930;2023-02-21T06:10:15;9.10;99.90
51914;DHT22;37940;53.002;6.930;2023-02-21T06:12:41;9.10;99.90
51914;DHT22;37940;53.002;6.930;2023-02-21T06:15:07;9.10;99.90
51914;DHT22;37940;53.002;6.930;2023-02-21T06:17:35;9.10;99.90
51914;DHT22;37940;53.002;6.930;2023-02-21T06:20:02;9.10;99.90
51914;DHT22;37940;53.002;6.930;2023-02-21T06:22:28;9.10;99.90
51914;DHT22;37940;53.002;6.930;2023-02-21T06:24:54;9.10;99.90
51914;DHT22;37940;53.002;6.930;2023-02-21T06:27:20;9.10;99.90
51914;DHT22;37940;53.002;6.930;2023-02-21T06:29:46;9.10;99.90
51914;DHT22;37940;53.002;6.930;2023-02-21T06:32:12;9.10;99.90
51914;DHT22;37940;53.002;6.930;2023-02-21T06:34:38;9.10;99.90
51914;DHT22;37940;53.002;6.930;2023-02-21T06:37:03;9.10;99.90
51914;DHT22;37940;53.002;6.930;2023-02-21T06:39:29;9.10;99.90
51914;DHT22;37940;53.002;6.930;2023-02-21T06:41:55;9.10;99.90
51914;DHT22;37940;53.002;6.930;2023-02-21T06:44:21;9.10;99.90
51914;DHT22;37940;53.002;6.930;2023-02-21T06:46:48;9.10;99.90
51914;DHT22;37940;53.002;6.930;2023-02-21T06:49:15;9.10;99.90
51914;DHT22;37940;53.002;6.930;2023-02-21T06:51:41;9.10;99.90
51914;DHT22;37940;53.002;6.930;2023-02-21T06:54:08;9.10;99.90
51914;DHT22;37940;53.002;6.930;2023-02-21T06:56:35;9.10;99.90
51914;DHT22;37940;53.002;6.930;2023-02-21T06:59:01;9.00;99.90
51914;DHT22;37940;53.002;6.930;2023-02-21T07:01:28;9.00;99.90
51914;DHT22;37940;53.002;6.930;2023-02-21T07:03:55;9.00;99.90
51914;DHT22;37940;53.002;6.930;2023-02-21T07:06:22;9.10;99.90
51914;DHT22;37940;53.002;6.930;2023-02-21T07:08:48;9.10;99.90
51914;DHT22;37940;53.002;6.930;2023-02-21T07:11:15;9.00;99.90
51914;DHT22;37940;53.002;6.930;2023-02-21T07:13:51;9.10;99.90
51914;DHT22;37940;53.002;6.930;2023-02-21T07:16:18;9.10;99.90
51914;DHT22;37940;53.002;6.930;2023-02-21T07:18:45;9.10;99.90
51914;DHT22;37940;53.002;6.930;2023-02-21T07:21:12;9.10;99.90
51914;DHT22;37940;53.002;6.930;2023-02-21T07:23:38;9.10;99.90
51914;DHT22;37940;53.002;6.930;2023-02-21T07:26:04;9.10;99.90
51914;DHT22;37940;53.002;6.930;2023-02-21T07:28:30;9.10;99.90
51914;DHT22;37940;53.002;6.930;2023-02-21T07:30:56;9.10;99.90
51914;DHT22;37940;53.002;6.930;2023-02-21T07:33:21;9.10;99.90
51914;DHT22;37940;53.002;6.930;2023-02-21T07:35:47;9.10;99.90
51914;DHT22;37940;53.002;6.930;2023-02-21T07:38:26;9.10;99.90
51914;DHT22;37940;53.002;6.930;2023-02-21T07:41:00;9.10;99.90
51914;DHT22;37940;53.002;6.930;2023-02-21T07:43:28;9.10;99.90
51914;DHT22;37940;53.002;6.930;2023-02-21T07:45:55;9.20;99.90
51914;DHT22;37940;53.002;6.930;2023-02-21T07:48:21;9.20;99.90
51914;DHT22;37940;53.002;6.930;2023-02-21T07:50:47;9.20;99.90
51914;DHT22;37940;53.002;6.930;2023-02-21T07:53:14;9.20;99.90
51914;DHT22;37940;53.002;6.930;2023-02-21T07:55:40;9.20;99.90
51914;DHT22;37940;53.002;6.930;2023-02-21T07:58:06;9.20;99.90
51914;DHT22;37940;53.002;6.930;2023-02-21T08:00:33;9.20;99.90
51914;DHT22;37940;53.002;6.930;2023-02-21T08:02:59;9.30;99.90
51914;DHT22;37940;53.002;6.930;2023-02-21T08:05:25;9.30;99.90
51914;DHT22;37940;53.002;6.930;2023-02-21T08:07:51;9.30;99.90
51914;DHT22;37940;53.002;6.930;2023-02-21T08:10:26;9.40;99.90
51914;DHT22;37940;53.002;6.930;2023-02-21T08:12:53;9.40;99.90
51914;DHT22;37940;53.002;6.930;2023-02-21T08:15:19;9.40;99.90
51914;DHT22;37940;53.002;6.930;2023-02-21T08:17:50;9.40;99.90
51914;DHT22;37940;53.002;6.930;2023-02-21T08:20:17;9.50;99.90
51914;DHT22;37940;53.002;6.930;2023-02-21T08:22:43;9.50;99.90
51914;DHT22;37940;53.002;6.930;2023-02-21T08:25:13;9.50;99.90
51914;DHT22;37940;53.002;6.930;2023-02-21T08:27:41;9.60;99.90
51914;DHT22;37940;53.002;6.930;2023-02-21T08:30:09;9.60;99.90
51914;DHT22;37940;53.002;6.930;2023-02-21T08:32:35;9.60;99.90
51914;DHT22;37940;53.002;6.930;2023-02-21T08:35:02;9.60;99.90
51914;DHT22;37940;53.002;6.930;2023-02-21T08:37:31;9.60;99.90
51914;DHT22;37940;53.002;6.930;2023-02-21T08:39:58;9.60;99.90
51914;DHT22;37940;53.002;6.930;2023-02-21T08:42:24;9.70;99.90
51914;DHT22;37940;53.002;6.930;2023-02-21T08:44:50;9.70;99.90
51914;DHT22;37940;53.002;6.930;2023-02-21T08:47:16;9.70;99.90
51914;DHT22;37940;53.002;6.930;2023-02-21T08:49:43;9.70;99.90
51914;DHT22;37940;53.002;6.930;2023-02-21T08:52:12;9.80;99.90
51914;DHT22;37940;53.002;6.930;2023-02-21T08:54:39;9.80;99.90
51914;DHT22;37940;53.002;6.930;2023-02-21T08:57:05;9.80;99.90
51914;DHT22;37940;53.002;6.930;2023-02-21T08:59:31;9.80;99.90
51914;DHT22;37940;53.002;6.930;2023-02-21T09:02:01;9.80;99.90
51914;DHT22;37940;53.002;6.930;2023-02-21T09:04:27;9.80;99.90
51914;DHT22;37940;53.002;6.930;2023-02-21T09:06:53;9.90;99.90
51914;DHT22;37940;53.002;6.930;2023-02-21T09:09:19;9.90;99.90
51914;DHT22;37940;53.002;6.930;2023-02-21T09:11:45;10.00;99.90
51914;DHT22;37940;53.002;6.930;2023-02-21T09:14:15;10.00;99.90
51914;DHT22;37940;53.002;6.930;2023-02-21T09:16:41;10.10;99.90
51914;DHT22;37940;53.002;6.930;2023-02-21T09:19:08;10.10;99.90
51914;DHT22;37940;53.002;6.930;2023-02-21T09:21:34;10.10;99.90
51914;DHT22;37940;53.002;6.930;2023-02-21T09:24:00;10.00;99.90
51914;DHT22;37940;53.002;6.930;2023-02-21T09:26:28;10.10;99.90
51914;DHT22;37940;53.002;6.930;2023-02-21T09:28:56;10.10;99.90
51914;DHT22;37940;53.002;6.930;2023-02-21T09:31:23;10.10;99.90
51914;DHT22;37940;53.002;6.930;2023-02-21T09:33:49;10.10;99.90
51914;DHT22;37940;53.002;6.930;2023-02-21T09:36:15;10.10;99.90
51914;DHT22;37940;53.002;6.930;2023-02-21T09:38:51;10.20;99.90
51914;DHT22;37940;53.002;6.930;2023-02-21T09:41:18;10.20;99.90
51914;DHT22;37940;53.002;6.930;2023-02-21T09:43:47;10.20;99.90
51914;DHT22;37940;53.002;6.930;2023-02-21T09:48:59;10.30;99.90
51914;DHT22;37940;53.002;6.930;2023-02-21T09:51:26;10.30;99.90
51914;DHT22;37940;53.002;6.930;2023-02-21T09:53:55;10.40;99.90
51914;DHT22;37940;53.002;6.930;2023-02-21T09:58:55;10.40;99.90
51914;DHT22;37940;53.002;6.930;2023-02-21T10:04:11;10.50;99.90
51914;DHT22;37940;53.002;6.930;2023-02-21T10:09:51;10.50;99.90
51914;DHT22;37940;53.002;6.930;2023-02-21T10:12:27;10.50;99.90
51914;DHT22;37940;53.002;6.930;2023-02-21T10:20:14;10.50;99.90
51914;DHT22;37940;53.002;6.930;2023-02-21T10:22:47;10.50;99.90
51914;DHT22;37940;53.002;6.930;2023-02-21T10:25:23;10.50;99.90
51914;DHT22;37940;53.002;6.930;2023-02-21T10:27:51;10.50;99.90
51914;DHT22;37940;53.002;6.930;2023-02-21T10:30:36;10.50;99.90
51914;DHT22;37940;53.002;6.930;2023-02-21T10:33:03;10.60;99.90
51914;DHT22;37940;53.002;6.930;2023-02-21T10:35:34;10.60;99.90
51914;DHT22;37940;53.002;6.930;2023-02-21T10:38:02;10.70;99.90
51914;DHT22;37940;53.002;6.930;2023-02-21T10:40:56;10.70;99.90
51914;DHT22;37940;53.002;6.930;2023-02-21T10:43:31;10.80;99.90
51914;DHT22;37940;53.002;6.930;2023-02-21T10:48:50;10.90;99.90
51914;DHT22;37940;53.002;6.930;2023-02-21T10:51:29;10.90;99.90
51914;DHT22;37940;53.002;6.930;2023-02-21T10:54:17;11.00;99.90
51914;DHT22;37940;53.002;6.930;2023-02-21T10:56:44;11.00;99.90
51914;DHT22;37940;53.002;6.930;2023-02-21T10:59:22;10.90;99.90
51914;DHT22;37940;53.002;6.930;2023-02-21T11:01:50;10.90;99.90
51914;DHT22;37940;53.002;6.930;2023-02-21T11:06:48;11.00;99.90
51914;DHT22;37940;53.002;6.930;2023-02-21T11:09:41;11.00;99.90
51914;DHT22;37940;53.002;6.930;2023-02-21T11:12:32;11.00;99.90
51914;DHT22;37940;53.002;6.930;2023-02-21T11:17:28;11.00;99.90
51914;DHT22;37940;53.002;6.930;2023-02-21T11:27:39;11.20;99.90
51914;DHT22;37940;53.002;6.930;2023-02-21T11:30:23;11.20;99.90
51914;DHT22;37940;53.002;6.930;2023-02-21T11:32:52;11.20;99.90
51914;DHT22;37940;53.002;6.930;2023-02-21T11:37:53;11.10;99.90
51914;DHT22;37940;53.002;6.930;2023-02-21T11:43:24;11.10;99.90
51914;DHT22;37940;53.002;6.930;2023-02-21T11:49:02;11.00;99.90
51914;DHT22;37940;53.002;6.930;2023-02-21T11:51:37;11.10;99.90
51914;DHT22;37940;53.002;6.930;2023-02-21T11:54:05;11.00;99.90
51914;DHT22;37940;53.002;6.930;2023-02-21T11:56:38;11.00;99.90
51914;DHT22;37940;53.002;6.930;2023-02-21T11:59:19;11.00;99.90
51914;DHT22;37940;53.002;6.930;2023-02-21T12:11:11;11.20;99.90
51914;DHT22;37940;53.002;6.930;2023-02-21T12:26:17;11.30;99.90
51914;DHT22;37940;53.002;6.930;2023-02-21T12:31:22;11.30;99.90
51914;DHT22;37940;53.002;6.930;2023-02-21T12:39:09;11.30;99.90
51914;DHT22;37940;53.002;6.930;2023-02-21T12:49:54;11.20;99.90
51914;DHT22;37940;53.002;6.930;2023-02-21T12:55:22;11.20;99.90
51914;DHT22;37940;53.002;6.930;2023-02-21T13:00:41;11.30;99.90
51914;DHT22;37940;53.002;6.930;2023-02-21T13:05:43;11.30;99.90
51914;DHT22;37940;53.002;6.930;2023-02-21T13:08:31;11.20;99.90
51914;DHT22;37940;53.002;6.930;2023-02-21T13:11:21;11.20;99.90
51914;DHT22;37940;53.002;6.930;2023-02-21T13:13:49;11.20;99.90
51914;DHT22;37940;53.002;6.930;2023-02-21T13:16:15;11.20;99.90
51914;DHT22;37940;53.002;6.930;2023-02-21T13:19:03;11.20;99.90
51914;DHT22;37940;53.002;6.930;2023-02-21T13:24:54;11.20;99.90
51914;DHT22;37940;53.002;6.930;2023-02-21T13:27:38;11.10;99.90
51914;DHT22;37940;53.002;6.930;2023-02-21T13:32:58;11.00;99.90
51914;DHT22;37940;53.002;6.930;2023-02-21T13:35:45;11.00;99.90
51914;DHT22;37940;53.002;6.930;2023-02-21T13:38:11;11.00;99.90
51914;DHT22;37940;53.002;6.930;2023-02-21T13:40:47;11.00;99.90
51914;DHT22;37940;53.002;6.930;2023-02-21T13:43:27;11.00;99.90
51914;DHT22;37940;53.002;6.930;2023-02-21T13:45:54;10.90;99.90
51914;DHT22;37940;53.002;6.930;2023-02-21T13:48:40;10.90;99.90
51914;DHT22;37940;53.002;6.930;2023-02-21T13:51:07;10.90;99.90
51914;DHT22;37940;53.002;6.930;2023-02-21T13:54:08;10.90;99.90
51914;DHT22;37940;53.002;6.930;2023-02-21T13:56:42;10.90;99.90
51914;DHT22;37940;53.002;6.930;2023-02-21T14:02:19;10.90;99.90
51914;DHT22;37940;53.002;6.930;2023-02-21T14:05:01;10.90;99.90
51914;DHT22;37940;53.002;6.930;2023-02-21T14:12:55;10.80;99.90
51914;DHT22;37940;53.002;6.930;2023-02-21T14:15:22;10.70;99.90
51914;DHT22;37940;53.002;6.930;2023-02-21T14:17:50;10.70;99.90
51914;DHT22;37940;53.002;6.930;2023-02-21T14:20:19;10.70;99.90
51914;DHT22;37940;53.002;6.930;2023-02-21T14:22:49;10.70;99.90
51914;DHT22;37940;53.002;6.930;2023-02-21T14:25:16;10.60;99.90
51914;DHT22;37940;53.002;6.930;2023-02-21T14:27:43;10.60;99.90
51914;DHT22;37940;53.002;6.930;2023-02-21T14:32:46;10.50;99.90
51914;DHT22;37940;53.002;6.930;2023-02-21T14:35:22;10.50;99.90
51914;DHT22;37940;53.002;6.930;2023-02-21T14:38:06;10.50;99.90
51914;DHT22;37940;53.002;6.930;2023-02-21T14:43:25;10.60;99.90
51914;DHT22;37940;53.002;6.930;2023-02-21T14:46:19;10.60;99.90
51914;DHT22;37940;53.002;6.930;2023-02-21T14:52:21;10.70;99.90
51914;DHT22;37940;53.002;6.930;2023-02-21T15:07:57;10.50;99.90
51914;DHT22;37940;53.002;6.930;2023-02-21T15:10:27;10.50;99.90
51914;DHT22;37940;53.002;6.930;2023-02-21T15:12:54;10.50;99.90
51914;DHT22;37940;53.002;6.930;2023-02-21T15:15:38;10.40;99.90
51914;DHT22;37940;53.002;6.930;2023-02-21T15:20:34;10.40;99.90
51914;DHT22;37940;53.002;6.930;2023-02-21T15:23:12;10.40;99.90
51914;DHT22;37940;53.002;6.930;2023-02-21T15:25:39;10.30;99.90
51914;DHT22;37940;53.002;6.930;2023-02-21T15:28:14;10.30;99.90
51914;DHT22;37940;53.002;6.930;2023-02-21T15:30:54;10.30;99.90
51914;DHT22;37940;53.002;6.930;2023-02-21T15:33:22;10.30;99.90
51914;DHT22;37940;53.002;6.930;2023-02-21T15:35:54;10.20;99.90
51914;DHT22;37940;53.002;6.930;2023-02-21T15:38:29;10.20;99.90
51914;DHT22;37940;53.002;6.930;2023-02-21T15:41:44;10.10;99.90
51914;DHT22;37940;53.002;6.930;2023-02-21T15:43:52;10.10;99.90
51914;DHT22;37940;53.002;6.930;2023-02-21T15:46:24;10.10;99.90
51914;DHT22;37940;53.002;6.930;2023-02-21T15:48:54;10.10;99.90
51914;DHT22;37940;53.002;6.930;2023-02-21T15:51:21;10.00;99.90
51914;DHT22;37940;53.002;6.930;2023-02-21T15:54:19;10.00;99.90
51914;DHT22;37940;53.002;6.930;2023-02-21T15:56:45;10.00;99.90
51914;DHT22;37940;53.002;6.930;2023-02-21T15:59:15;10.00;99.90
51914;DHT22;37940;53.002;6.930;2023-02-21T16:01:43;9.90;99.90
51914;DHT22;37940;53.002;6.930;2023-02-21T16:04:18;9.90;99.90
51914;DHT22;37940;53.002;6.930;2023-02-21T16:06:47;9.90;99.90
51914;DHT22;37940;53.002;6.930;2023-02-21T16:19:46;9.80;99.90
51914;DHT22;37940;53.002;6.930;2023-02-21T16:22:24;9.80;99.90
51914;DHT22;37940;53.002;6.930;2023-02-21T16:25:22;9.70;99.90
51914;DHT22;37940;53.002;6.930;2023-02-21T16:27:56;9.70;99.90
51914;DHT22;37940;53.002;6.930;2023-02-21T16:32:52;9.70;99.90
51914;DHT22;37940;53.002;6.930;2023-02-21T16:35:23;9.60;99.90
51914;DHT22;37940;53.002;6.930;2023-02-21T16:37:52;9.60;99.90
51914;DHT22;37940;53.002;6.930;2023-02-21T16:40:24;9.60;99.90
51914;DHT22;37940;53.002;6.930;2023-02-21T16:42:52;9.60;99.90
51914;DHT22;37940;53.002;6.930;2023-02-21T16:45:18;9.50;99.90
51914;DHT22;37940;53.002;6.930;2023-02-21T16:47:46;9.50;99.90
51914;DHT22;37940;53.002;6.930;2023-02-21T16:52:52;9.40;99.90
51914;DHT22;37940;53.002;6.930;2023-02-21T16:55:18;9.40;99.90
51914;DHT22;37940;53.002;6.930;2023-02-21T16:57:48;9.40;99.90
51914;DHT22;37940;53.002;6.930;2023-02-21T17:00:16;9.40;99.90
51914;DHT22;37940;53.002;6.930;2023-02-21T17:02:45;9.40;99.90
51914;DHT22;37940;53.002;6.930;2023-02-21T17:05:11;9.40;99.90
51914;DHT22;37940;53.002;6.930;2023-02-21T17:07:37;9.30;99.90
51914;DHT22;37940;53.002;6.930;2023-02-21T17:10:04;9.30;99.90
51914;DHT22;37940;53.002;6.930;2023-02-21T17:12:30;9.30;99.90
51914;DHT22;37940;53.002;6.930;2023-02-21T17:14:55;9.30;99.90
51914;DHT22;37940;53.002;6.930;2023-02-21T17:17:21;9.30;99.90
51914;DHT22;37940;53.002;6.930;2023-02-21T17:19:47;9.20;99.90
51914;DHT22;37940;53.002;6.930;2023-02-21T17:22:13;9.20;99.90
51914;DHT22;37940;53.002;6.930;2023-02-21T17:24:40;9.20;99.90
51914;DHT22;37940;53.002;6.930;2023-02-21T17:27:06;9.20;99.90
51914;DHT22;37940;53.002;6.930;2023-02-21T17:29:32;9.20;99.90
51914;DHT22;37940;53.002;6.930;2023-02-21T17:31:58;9.20;99.90
51914;DHT22;37940;53.002;6.930;2023-02-21T17:34:24;9.20;99.90
51914;DHT22;37940;53.002;6.930;2023-02-21T17:36:51;9.20;99.90
51914;DHT22;37940;53.002;6.930;2023-02-21T17:39:18;9.20;99.90
51914;DHT22;37940;53.002;6.930;2023-02-21T17:41:46;9.20;99.90
51914;DHT22;37940;53.002;6.930;2023-02-21T17:44:12;9.20;99.90
51914;DHT22;37940;53.002;6.930;2023-02-21T17:46:38;9.10;99.90
51914;DHT22;37940;53.002;6.930;2023-02-21T17:49:04;9.10;99.90
51914;DHT22;37940;53.002;6.930;2023-02-21T17:51:30;9.10;99.90
51914;DHT22;37940;53.002;6.930;2023-02-21T17:53:55;9.10;99.90
51914;DHT22;37940;53.002;6.930;2023-02-21T17:56:23;9.10;99.90
51914;DHT22;37940;53.002;6.930;2023-02-21T17:58:49;9.10;99.90
51914;DHT22;37940;53.002;6.930;2023-02-21T18:01:19;9.10;99.90
51914;DHT22;37940;53.002;6.930;2023-02-21T18:03:46;9.10;99.90
51914;DHT22;37940;53.002;6.930;2023-02-21T18:06:13;9.10;99.90
51914;DHT22;37940;53.002;6.930;2023-02-21T18:08:39;9.00;99.90
51914;DHT22;37940;53.002;6.930;2023-02-21T18:11:09;9.10;99.90
51914;DHT22;37940;53.002;6.930;2023-02-21T18:13:35;9.00;99.90
51914;DHT22;37940;53.002;6.930;2023-02-21T18:16:01;9.10;99.90
51914;DHT22;37940;53.002;6.930;2023-02-21T18:18:30;9.00;99.90
51914;DHT22;37940;53.002;6.930;2023-02-21T18:20:55;9.00;99.90
51914;DHT22;37940;53.002;6.930;2023-02-21T18:23:30;9.00;99.90
51914;DHT22;37940;53.002;6.930;2023-02-21T18:25:57;9.00;99.90
51914;DHT22;37940;53.002;6.930;2023-02-21T18:28:23;9.00;99.90
51914;DHT22;37940;53.002;6.930;2023-02-21T18:30:49;9.00;99.90
51914;DHT22;37940;53.002;6.930;2023-02-21T18:33:21;9.00;99.90
51914;DHT22;37940;53.002;6.930;2023-02-21T18:35:47;9.00;99.90
51914;DHT22;37940;53.002;6.930;2023-02-21T18:38:13;8.90;99.90
51914;DHT22;37940;53.002;6.930;2023-02-21T18:40:41;9.00;99.90
51914;DHT22;37940;53.002;6.930;2023-02-21T18:43:22;9.00;99.90
51914;DHT22;37940;53.002;6.930;2023-02-21T18:45:50;8.90;99.90
51914;DHT22;37940;53.002;6.930;2023-02-21T18:48:17;8.90;99.90
51914;DHT22;37940;53.002;6.930;2023-02-21T18:50:43;8.90;99.90
51914;DHT22;37940;53.002;6.930;2023-02-21T18:53:09;8.90;99.90
51914;DHT22;37940;53.002;6.930;2023-02-21T18:55:36;8.90;99.90
51914;DHT22;37940;53.002;6.930;2023-02-21T18:58:02;8.90;99.90
51914;DHT22;37940;53.002;6.930;2023-02-21T19:00:29;8.90;99.90
51914;DHT22;37940;53.002;6.930;2023-02-21T19:02:55;8.90;99.90